createdAt,value
2018-04-25T00:00:41.365Z,96735.05
2018-04-25T00:03:09.783Z,96740.16
2018-04-25T00:05:37.933Z,96735.92
2018-04-25T00:08:06.138Z,96740.16
2018-04-25T00:10:34.313Z,96736.78
2018-04-25T00:13:02.712Z,96730.41
2018-04-25T00:15:30.989Z,96730.84
2018-04-25T00:17:59.545Z,96727.02
2018-04-25T00:20:27.991Z,96727.44
2018-04-25T00:22:56.247Z,96729.56
2018-04-25T00:25:24.413Z,96725.76
2018-04-25T00:27:53.026Z,96724.48
2018-04-25T00:30:21.508Z,96726.59
2018-04-25T00:32:49.695Z,96728.73
2018-04-25T00:35:18.136Z,96721.11
2018-04-25T00:37:46.611Z,96727.03
2018-04-25T00:40:14.887Z,96718.98
2018-04-25T00:42:43.084Z,96726.20
2018-04-25T00:45:11.419Z,96717.70
2018-04-25T00:47:39.589Z,96717.29
2018-04-25T00:50:07.753Z,96718.97
2018-04-25T00:52:35.937Z,96716.00
2018-04-25T00:55:04.170Z,96711.37
2018-04-25T00:57:32.508Z,96710.93
2018-04-25T01:00:00.905Z,96712.20
2018-04-25T01:02:29.419Z,96711.36
2018-04-25T01:04:57.569Z,96713.48
2018-04-25T01:07:25.984Z,96714.34
2018-04-25T01:09:54.159Z,96714.30
2018-04-25T01:12:22.715Z,96707.55
2018-04-25T01:14:51.177Z,96710.92
2018-04-25T01:17:19.734Z,96711.33
2018-04-25T01:19:47.998Z,96710.89
2018-04-25T01:22:17.058Z,96708.77
2018-04-25T01:24:45.676Z,96709.20
2018-04-25T01:27:13.839Z,96709.59
2018-04-25T01:29:44.144Z,96714.63
2018-04-25T01:32:12.701Z,96717.55
2018-04-25T01:34:43.941Z,96712.89
2018-04-25T02:01:27.454Z,96723.91
2018-04-25T02:03:56.998Z,96717.51
2018-04-25T02:06:26.968Z,96721.69
2018-04-25T02:08:56.822Z,96721.28
2018-04-25T02:11:27.753Z,96721.30
2018-04-25T02:13:56.004Z,96718.33
2018-04-25T02:16:26.694Z,96718.33
2018-04-25T02:18:54.889Z,96717.11
2018-04-25T02:21:23.092Z,96713.72
2018-04-25T02:23:51.757Z,96715.83
2018-04-25T02:26:20.036Z,96712.86
2018-04-25T02:28:48.277Z,96714.14
2018-04-25T02:31:16.534Z,96715.83
2018-04-25T02:33:45.464Z,96717.53
2018-04-25T02:36:14.144Z,96718.80
2018-04-25T02:38:42.725Z,96720.48
2018-04-25T02:41:10.913Z,96720.88
2018-04-25T02:43:41.238Z,96720.45
2018-04-25T02:46:10.016Z,96720.44
2018-04-25T02:48:39.471Z,96714.52
2018-04-25T02:51:07.655Z,96715.37
2018-04-25T02:53:36.663Z,96711.57
2018-04-25T02:56:06.799Z,96706.06
2018-04-25T02:58:35.512Z,96709.86
2018-04-25T03:01:03.686Z,96712.84
2018-04-25T03:03:33.415Z,96706.06
2018-04-25T03:06:04.061Z,96697.20
2018-04-25T03:08:32.740Z,96700.16
2018-04-25T03:11:01.092Z,96693.37
2018-04-25T03:13:29.567Z,96693.39
2018-04-25T03:15:57.988Z,96690.39
2018-04-25T03:18:29.326Z,96692.91
2018-04-25T03:20:57.513Z,96690.36
2018-04-25T03:23:25.731Z,96696.26
2018-04-25T03:25:53.919Z,96692.41
2018-04-25T03:28:22.722Z,96691.58
2018-04-25T03:30:51.124Z,96689.47
2018-04-25T03:33:19.532Z,96686.91
2018-04-25T03:35:48.324Z,96692.86
2018-04-25T03:38:20.894Z,96689.48
2018-04-25T03:40:49.159Z,96695.84
2018-04-25T03:43:19.747Z,96693.73
2018-04-25T03:45:50.970Z,96693.30
2018-04-25T03:48:19.651Z,96698.80
2018-04-25T03:50:47.916Z,96694.97
2018-04-25T03:53:16.265Z,96691.58
2018-04-25T03:55:45.205Z,96697.47
2018-04-25T03:58:13.469Z,96698.76
2018-04-25T04:00:41.989Z,96704.27
2018-04-25T04:03:10.650Z,96707.63
2018-04-25T04:05:39.235Z,96712.69
2018-04-25T04:08:07.809Z,96712.23
2018-04-25T04:10:36.661Z,96707.54
2018-04-25T04:13:05.521Z,96713.83
2018-04-25T04:15:34.096Z,96711.74
2018-04-25T04:18:03.186Z,96712.18
2018-04-25T04:20:31.981Z,96711.34
2018-04-25T04:23:01.334Z,96711.36
2018-04-25T04:25:29.897Z,96709.28
2018-04-25T04:27:59.860Z,96714.80
2018-04-25T04:30:28.336Z,96714.80
2018-04-25T04:32:56.557Z,96715.25
2018-04-25T04:35:28.212Z,96721.60
2018-04-25T04:37:56.792Z,96736.02
2018-04-25T04:40:25.377Z,96722.08
2018-04-25T04:42:56.635Z,96724.23
2018-04-25T04:45:24.928Z,96725.52
2018-04-25T04:47:53.383Z,96721.71
2018-04-25T04:50:21.613Z,96724.72
2018-04-25T04:52:49.864Z,96722.61
2018-04-25T04:55:19.510Z,96725.61
2018-04-25T04:57:48.926Z,96725.20
2018-04-25T05:00:17.847Z,96722.68
2018-04-25T05:02:46.455Z,96723.53
2018-04-25T05:05:14.679Z,96730.33
2018-04-25T05:07:43.527Z,96725.70
2018-04-25T05:10:12.181Z,96726.57
2018-04-25T05:12:41.747Z,96728.27
2018-04-25T05:15:10.099Z,96737.62
2018-04-25T05:17:38.289Z,96739.72
2018-04-25T05:20:08.304Z,96748.63
2018-04-25T05:22:36.508Z,96754.99
2018-04-25T05:25:04.731Z,96758.39
2018-04-25T05:27:33.451Z,96760.09
2018-04-25T05:30:01.685Z,96759.25
2018-04-25T05:32:30.210Z,96760.95
2018-04-25T05:34:59.835Z,96757.97
2018-04-25T05:37:28.625Z,96766.05
2018-04-25T05:39:56.868Z,96763.07
2018-04-25T05:42:25.598Z,96761.80
2018-04-25T05:44:55.400Z,96764.75
2018-04-25T05:47:26.121Z,96771.50
2018-04-25T05:49:55.976Z,96771.92
2018-04-25T05:52:26.938Z,96773.61
2018-04-25T05:54:55.136Z,96774.47
2018-04-25T05:57:23.757Z,96774.89
2018-04-25T05:59:51.961Z,96780.00
2018-04-25T06:02:20.727Z,96772.75
2018-04-25T06:04:49.319Z,96764.68
2018-04-25T06:07:18.009Z,96765.06
2018-04-25T06:09:46.203Z,96758.22
2018-04-25T06:12:15.211Z,96758.62
2018-04-25T06:14:44.064Z,96763.66
2018-04-25T06:17:14.990Z,96762.73
2018-04-25T06:19:43.575Z,96763.09
2018-04-25T06:25:07.985Z,96757.40
2018-04-25T06:27:37.299Z,96758.19
2018-04-25T06:30:05.673Z,96759.81
2018-04-25T06:32:35.751Z,96757.98
2018-04-25T06:35:04.268Z,96757.02
2018-04-25T06:37:36.595Z,96753.89
2018-04-25T06:40:04.783Z,96749.92
2018-04-25T06:42:33.341Z,96745.93
2018-04-25T06:45:01.836Z,96750.91
2018-04-25T06:47:30.126Z,96745.27
2018-04-25T06:49:58.366Z,96751.92
2018-04-25T06:52:26.534Z,96747.91
2018-04-25T06:54:54.786Z,96747.36
2018-04-25T06:57:23.004Z,96740.38
2018-04-25T06:59:51.218Z,96733.80
2018-04-25T07:02:19.373Z,96734.89
2018-04-25T07:04:47.533Z,96739.48
2018-04-25T07:07:15.699Z,96735.50
2018-04-25T07:09:44.123Z,96743.38
2018-04-25T07:12:12.526Z,96733.42
2018-04-25T07:14:41.407Z,96727.66
2018-04-25T07:17:09.569Z,96725.24
2018-04-25T07:19:38.010Z,96730.86
2018-04-25T07:22:06.499Z,96725.11
2018-04-25T07:24:34.690Z,96732.84
2018-04-25T07:27:02.864Z,96732.13
2018-04-25T07:29:31.098Z,96725.06
2018-04-25T07:31:59.301Z,96727.94
2018-04-25T07:34:27.743Z,96722.70
2018-04-25T07:36:56.268Z,96721.30
2018-04-25T07:39:24.412Z,96723.39
2018-04-25T07:41:52.636Z,96731.98
2018-04-25T07:44:20.764Z,96708.15
2018-04-25T07:46:49.156Z,96712.69
2018-04-25T07:49:17.345Z,96706.38
2018-04-25T07:51:45.517Z,96706.55
2018-04-25T07:54:13.701Z,96697.27
2018-04-25T07:56:41.861Z,96688.09
2018-04-25T07:59:10.062Z,96685.86
2018-04-25T08:01:38.495Z,96686.83
2018-04-25T08:04:07.503Z,96682.61
2018-04-25T08:06:35.666Z,96678.08
2018-04-25T08:09:03.838Z,96676.88
2018-04-25T08:11:32.035Z,96674.06
2018-04-25T08:14:11.972Z,96671.78
2018-04-25T08:16:52.249Z,96669.43
2018-04-25T08:19:32.564Z,96678.84
2018-04-25T08:22:01.077Z,96677.81
2018-04-25T08:24:29.230Z,96667.36
2018-04-25T08:26:57.406Z,96663.60
2018-04-25T08:29:25.862Z,96663.77
2018-04-25T08:31:54.313Z,96664.03
2018-04-25T08:34:22.534Z,96666.12
2018-04-25T08:36:51.012Z,96659.30
2018-04-25T08:39:20.140Z,96666.70
2018-04-25T08:41:48.373Z,96658.20
2018-04-25T08:44:16.808Z,96653.81
2018-04-25T08:46:44.962Z,96653.78
2018-04-25T08:49:13.436Z,96651.73
2018-04-25T08:51:41.746Z,96653.94
2018-04-25T08:54:09.910Z,96653.56
2018-04-25T08:56:38.315Z,96643.20
2018-04-25T08:59:06.476Z,96641.67
2018-04-25T09:01:34.647Z,96642.73
2018-04-25T09:04:02.841Z,96635.44
2018-04-25T09:06:30.984Z,96631.80
2018-04-25T09:08:59.135Z,96637.95
2018-04-25T09:11:27.304Z,96633.27
2018-04-25T09:13:55.487Z,96633.17
2018-04-25T09:16:23.644Z,96625.94
2018-04-25T09:18:51.791Z,96628.32
2018-04-25T09:21:19.943Z,96616.65
2018-04-25T09:23:48.247Z,96617.50
2018-04-25T09:26:16.422Z,96621.20
2018-04-25T09:28:44.829Z,96615.85
2018-04-25T09:31:12.980Z,96613.65
2018-04-25T09:33:43.456Z,96609.73
2018-04-25T09:36:11.605Z,96603.76
2018-04-25T09:38:39.844Z,96603.58
2018-04-25T09:41:07.998Z,96599.17
2018-04-25T09:43:36.410Z,96604.47
2018-04-25T09:46:04.568Z,96596.51
2018-04-25T09:48:32.750Z,96591.53
2018-04-25T09:51:00.911Z,96593.20
2018-04-25T09:53:29.069Z,96591.58
2018-04-25T09:55:57.493Z,96589.14
2018-04-25T09:58:25.859Z,96588.93
2018-04-25T10:00:58.131Z,96585.14
2018-04-25T10:03:26.572Z,96582.54
2018-04-25T10:05:54.899Z,96580.02
2018-04-25T10:08:23.227Z,96578.71
2018-04-25T10:10:51.479Z,96575.67
2018-04-25T10:13:19.942Z,96582.34
2018-04-25T10:15:48.390Z,96572.23
2018-04-25T10:18:16.556Z,96563.63
2018-04-25T10:20:45.047Z,96557.00
2018-04-25T10:23:13.245Z,96548.75
2018-04-25T10:25:41.792Z,96551.36
2018-04-25T10:28:10.305Z,96546.91
2018-04-25T10:30:38.544Z,96537.36
2018-04-25T10:33:07.063Z,96528.91
2018-04-25T10:35:35.200Z,96539.00
2018-04-25T10:38:03.677Z,96517.07
2018-04-25T10:40:32.208Z,96520.52
2018-04-25T10:43:00.744Z,96519.16
2018-04-25T10:45:29.262Z,96518.74
2018-04-25T10:47:57.427Z,96522.44
2018-04-25T10:50:25.623Z,96521.38
2018-04-25T10:52:54.235Z,96503.52
2018-04-25T10:55:22.883Z,96500.98
2018-04-25T10:57:51.371Z,96504.91
2018-04-25T11:00:19.526Z,96491.75
2018-04-25T11:02:47.706Z,96492.02
2018-04-25T11:05:16.221Z,96500.94
2018-04-25T11:07:44.703Z,96501.10
2018-04-25T11:10:12.871Z,96489.44
2018-04-25T11:12:41.591Z,96505.55
2018-04-25T11:15:09.748Z,96496.04
2018-04-25T11:17:38.033Z,96505.50
2018-04-25T11:20:06.610Z,96482.00
2018-04-25T11:22:34.799Z,96470.39
2018-04-25T11:25:03.071Z,96468.38
2018-04-25T11:27:31.308Z,96474.05
2018-04-25T11:29:59.497Z,96474.72
2018-04-25T11:32:27.944Z,96484.84
2018-04-25T11:34:56.145Z,96473.65
2018-04-25T11:37:24.644Z,96463.39
2018-04-25T11:39:52.837Z,96473.70
2018-04-25T11:42:21.637Z,96463.77
2018-04-25T11:44:50.263Z,96470.65
2018-04-25T11:47:18.488Z,96464.14
2018-04-25T11:49:46.629Z,96467.72
2018-04-25T11:52:14.792Z,96458.39
2018-04-25T11:54:42.961Z,96472.04
2018-04-25T11:57:11.644Z,96468.37
2018-04-25T11:59:40.299Z,96460.86
2018-04-25T12:02:08.751Z,96454.51
2018-04-25T12:04:37.017Z,96452.16
2018-04-25T12:07:05.603Z,96443.25
2018-04-25T12:09:33.931Z,96443.80
2018-04-25T12:12:02.092Z,96452.73
2018-04-25T12:14:30.649Z,96437.22
2018-04-25T12:16:59.319Z,96433.73
2018-04-25T12:19:27.921Z,96447.28
2018-04-25T12:21:56.570Z,96448.18
2018-04-25T12:24:24.799Z,96446.09
2018-04-25T12:26:52.911Z,96440.13
2018-04-25T12:29:21.079Z,96432.98
2018-04-25T12:31:49.359Z,96435.64
2018-04-25T12:34:17.882Z,96444.77
2018-04-25T12:36:46.436Z,96432.55
2018-04-25T12:39:14.924Z,96430.30
2018-04-25T12:41:43.580Z,96440.67
2018-04-25T12:44:11.952Z,96438.02
2018-04-25T12:46:40.579Z,96438.59
2018-04-25T12:49:08.905Z,96437.98
2018-04-25T12:51:37.557Z,96435.53
2018-04-25T12:54:06.064Z,96438.61
2018-04-25T12:56:34.234Z,96436.80
2018-04-25T12:59:02.396Z,96439.55
2018-04-25T13:01:30.567Z,96431.34
2018-04-25T13:03:59.041Z,96434.81
2018-04-25T13:06:27.505Z,96428.70
2018-04-25T13:08:55.698Z,96421.83
2018-04-25T13:11:24.177Z,96408.95
2018-04-25T13:13:52.340Z,96412.80
2018-04-25T13:16:20.536Z,96399.95
2018-04-25T13:18:48.691Z,96401.14
2018-04-25T13:21:16.847Z,96411.85
2018-04-25T13:23:45.032Z,96391.66
2018-04-25T13:26:13.799Z,96384.81
2018-04-25T13:28:41.986Z,96394.68
2018-04-25T13:31:10.519Z,96407.56
2018-04-25T13:33:39.151Z,96402.09
2018-04-25T13:36:07.619Z,96403.13
2018-04-25T13:38:35.788Z,96411.80
2018-04-25T13:41:03.941Z,96401.16
2018-04-25T13:43:32.683Z,96410.98
2018-04-25T13:46:01.261Z,96397.93
2018-04-25T13:48:29.853Z,96403.93
2018-04-25T13:50:58.012Z,96410.56
2018-04-25T13:53:26.289Z,96396.32
2018-04-25T13:55:54.456Z,96401.80
2018-04-25T13:58:22.603Z,96402.75
2018-04-25T14:00:50.839Z,96389.44
2018-04-25T14:03:19.058Z,96399.00
2018-04-25T14:05:47.234Z,96401.64
2018-04-25T14:08:15.377Z,96396.37
2018-04-25T14:10:43.535Z,96394.01
2018-04-25T14:13:12.195Z,96397.38
2018-04-25T14:15:40.792Z,96391.31
2018-04-25T14:18:08.951Z,96392.00
2018-04-25T14:20:37.357Z,96404.41
2018-04-25T14:23:05.576Z,96393.85
2018-04-25T14:25:34.083Z,96396.98
2018-04-25T14:28:02.755Z,96394.47
2018-04-25T14:30:31.170Z,96394.45
2018-04-25T14:32:59.315Z,96387.09
2018-04-25T14:35:28.100Z,96384.69
2018-04-25T14:37:56.705Z,96380.98
2018-04-25T14:40:25.393Z,96378.61
2018-04-25T14:42:53.855Z,96384.75
2018-04-25T14:45:22.035Z,96375.18
2018-04-25T14:47:50.409Z,96384.83
2018-04-25T14:50:18.613Z,96383.77
2018-04-25T14:52:46.980Z,96383.63
2018-04-25T14:55:15.250Z,96382.58
2018-04-25T14:57:43.445Z,96379.01
2018-04-25T15:00:11.651Z,96387.63
2018-04-25T15:02:40.309Z,96394.94
2018-04-25T15:05:08.444Z,96393.78
2018-04-25T15:07:36.613Z,96391.50
2018-04-25T15:10:05.388Z,96397.00
2018-04-25T15:12:34.102Z,96398.45
2018-04-25T15:15:02.649Z,96398.42
2018-04-25T15:17:30.830Z,96397.70
2018-04-25T15:19:58.982Z,96396.92
2018-04-25T15:22:27.530Z,96391.98
2018-04-25T15:24:55.916Z,96396.32
2018-04-25T15:27:24.061Z,96389.09
2018-04-25T15:29:52.237Z,96392.92
2018-04-25T15:32:20.448Z,96395.37
2018-04-25T15:34:49.031Z,96385.20
2018-04-25T15:37:17.238Z,96385.67
2018-04-25T15:39:45.390Z,96394.80
2018-04-25T15:42:13.561Z,96393.98
2018-04-25T15:44:42.101Z,96391.80
2018-04-25T15:47:10.692Z,96386.66
2018-04-25T15:49:39.193Z,96391.64
2018-04-25T15:52:07.390Z,96384.26
2018-04-25T15:54:35.553Z,96386.27
2018-04-25T15:57:04.211Z,96388.13
2018-04-25T15:59:32.787Z,96388.27
2018-04-25T16:02:01.006Z,96395.63
2018-04-25T16:04:29.529Z,96395.75
2018-04-25T16:06:58.124Z,96401.84
2018-04-25T16:09:27.636Z,96408.07
2018-04-25T16:11:55.797Z,96399.25
2018-04-25T16:14:24.372Z,96404.34
2018-04-25T16:16:52.506Z,96406.31
2018-04-25T16:19:21.029Z,96401.15
2018-04-25T16:21:49.623Z,96413.92
2018-04-25T16:24:18.320Z,96419.77
2018-04-25T16:26:46.803Z,96423.52
2018-04-25T16:29:15.241Z,96418.03
2018-04-25T16:31:43.400Z,96416.45
2018-04-25T16:34:11.585Z,96424.53
2018-04-25T16:36:40.308Z,96419.45
2018-04-25T16:39:08.464Z,96420.35
2018-04-25T16:41:36.605Z,96423.39
2018-04-25T16:44:04.789Z,96418.34
2018-04-25T16:46:33.063Z,96427.14
2018-04-25T16:49:01.543Z,96430.77
2018-04-25T16:51:30.071Z,96436.01
2018-04-25T16:53:58.656Z,96427.41
2018-04-25T16:56:26.802Z,96432.72
2018-04-25T16:58:55.219Z,96426.53
2018-04-25T17:01:23.467Z,96427.34
2018-04-25T17:03:52.170Z,96428.86
2018-04-25T17:06:20.752Z,96428.08
2018-04-25T17:08:48.901Z,96437.44
2018-04-25T17:11:17.078Z,96441.27
2018-04-25T17:13:45.264Z,96454.05
2018-04-25T17:16:13.443Z,96444.60
2018-04-25T17:18:41.976Z,96442.54
2018-04-25T17:21:10.128Z,96436.81
2018-04-25T17:23:38.678Z,96445.59
2018-04-25T17:26:06.835Z,96447.05
2018-04-25T17:28:35.032Z,96443.55
2018-04-25T17:31:03.190Z,96444.39
2018-04-25T17:33:31.389Z,96446.68
2018-04-25T17:35:59.619Z,96467.38
2018-04-25T17:38:28.344Z,96467.92
2018-04-25T17:40:56.508Z,96471.73
2018-04-25T17:43:24.887Z,96471.08
2018-04-25T17:45:53.063Z,96475.95
2018-04-25T17:48:21.212Z,96475.44
2018-04-25T17:50:49.517Z,96482.35
2018-04-25T17:53:17.724Z,96479.73
2018-04-25T17:55:45.892Z,96495.69
2018-04-25T17:58:14.265Z,96495.62
2018-04-25T18:00:42.585Z,96491.20
2018-04-25T18:03:10.780Z,96495.72
2018-04-25T18:05:38.957Z,96496.46
2018-04-25T18:08:07.110Z,96503.14
2018-04-25T18:10:35.686Z,96507.59
2018-04-25T18:13:04.318Z,96520.64
2018-04-25T18:15:32.796Z,96514.86
2018-04-25T18:18:00.975Z,96529.06
2018-04-25T18:20:29.220Z,96528.39
2018-04-25T18:22:58.823Z,96532.90
2018-04-25T18:25:26.962Z,96530.02
2018-04-25T18:27:55.611Z,96534.48
2018-04-25T18:30:23.787Z,96539.97
2018-04-25T18:32:52.126Z,96539.15
2018-04-25T18:35:20.306Z,96547.20
2018-04-25T18:37:48.815Z,96554.09
2018-04-25T18:40:16.973Z,96563.25
2018-04-25T18:42:45.121Z,96556.88
2018-04-25T18:45:13.282Z,96560.36
2018-04-25T18:47:42.129Z,96561.38
2018-04-25T18:50:10.334Z,96558.48
2018-04-25T18:52:38.982Z,96562.08
2018-04-25T18:55:07.478Z,96569.89
2018-04-25T18:57:36.045Z,96576.90
2018-04-25T19:00:04.207Z,96582.61
2018-04-25T19:02:32.399Z,96589.52
2018-04-25T19:05:00.564Z,96586.57
2018-04-25T19:07:29.043Z,96590.91
2018-04-25T19:09:57.229Z,96598.80
2018-04-25T19:12:25.404Z,96601.75
2018-04-25T19:14:53.608Z,96598.38
2018-04-25T19:17:21.777Z,96604.00
2018-04-25T19:19:49.953Z,96607.56
2018-04-25T19:22:18.464Z,96612.28
2018-04-25T19:24:46.676Z,96614.84
2018-04-25T19:27:14.833Z,96620.02
2018-04-25T19:29:43.048Z,96617.94
2018-04-25T19:32:11.258Z,96621.08
2018-04-25T19:34:39.716Z,96635.30
2018-04-25T19:37:07.928Z,96634.08
2018-04-25T19:39:36.296Z,96631.98
2018-04-25T19:42:04.517Z,96633.34
2018-04-25T19:44:32.699Z,96633.02
2018-04-25T19:47:00.902Z,96644.19
2018-04-25T19:49:29.052Z,96639.95
2018-04-25T19:51:57.587Z,96640.81
2018-04-25T19:54:25.786Z,96645.22
2018-04-25T19:56:54.038Z,96658.58
2018-04-25T19:59:22.507Z,96659.48
2018-04-25T20:01:50.913Z,96648.83
2018-04-25T20:04:19.105Z,96651.77
2018-04-25T20:06:47.261Z,96662.91
2018-04-25T20:09:15.468Z,96655.76
2018-04-25T20:11:43.637Z,96660.08
2018-04-25T20:14:11.828Z,96655.47
2018-04-25T20:16:40.413Z,96659.83
2018-04-25T20:19:08.948Z,96672.70
2018-04-25T20:21:37.142Z,96672.75
2018-04-25T20:24:05.518Z,96664.20
2018-04-25T20:26:34.065Z,96648.45
2018-04-25T20:29:02.488Z,96649.39
2018-04-25T20:31:31.028Z,96652.39
2018-04-25T20:34:00.641Z,96658.41
2018-04-25T20:36:29.067Z,96661.84
2018-04-25T20:38:57.575Z,96653.45
2018-04-25T20:41:26.105Z,96649.72
2018-04-25T20:43:54.474Z,96651.52
2018-04-25T20:46:22.922Z,96658.48
2018-04-25T20:48:51.482Z,96662.49
2018-04-25T20:51:20.005Z,96658.38
2018-04-25T20:53:48.567Z,96653.75
2018-04-25T20:56:17.029Z,96665.68
2018-04-25T20:58:45.599Z,96668.20
2018-04-25T21:01:14.106Z,96675.47
2018-04-25T21:03:42.601Z,96683.20
2018-04-25T21:06:11.155Z,96699.02
2018-04-25T21:08:39.494Z,96698.24
2018-04-25T21:11:08.103Z,96694.02
2018-04-25T21:13:36.610Z,96683.48
2018-04-25T21:16:05.126Z,96686.47
2018-04-25T21:18:33.632Z,96692.06
2018-04-25T21:21:02.127Z,96697.62
2018-04-25T21:23:30.740Z,96701.00
2018-04-25T21:25:59.236Z,96708.23
2018-04-25T21:28:27.732Z,96710.80
2018-04-25T21:30:55.885Z,96706.95
2018-04-25T21:33:24.338Z,96697.16
2018-04-25T21:35:52.808Z,96699.83
2018-04-25T21:38:21.358Z,96700.51
2018-04-25T21:40:49.827Z,96710.55
2018-04-25T21:43:18.283Z,96715.38
2018-04-25T21:45:46.817Z,96715.91
2018-04-25T21:48:15.289Z,96719.43
2018-04-25T21:50:43.834Z,96723.08
2018-04-25T21:53:12.357Z,96748.73
2018-04-25T21:55:40.573Z,96753.00
2018-04-25T21:58:08.722Z,96763.21
2018-04-25T22:00:37.279Z,96756.05
2018-04-25T22:03:05.749Z,96753.58
2018-04-25T22:05:34.228Z,96752.05
2018-04-25T22:08:02.706Z,96746.22
2018-04-25T22:10:31.203Z,96736.98
2018-04-25T22:12:59.741Z,96737.89
2018-04-25T22:15:28.235Z,96739.17
2018-04-25T22:17:56.743Z,96737.83
2018-04-25T22:20:24.951Z,96746.84
2018-04-25T22:22:53.507Z,96740.96
2018-04-25T22:25:22.028Z,96749.92
2018-04-25T22:27:50.555Z,96744.77
2018-04-25T22:30:18.971Z,96744.48
2018-04-25T22:32:47.481Z,96751.88
2018-04-25T22:35:16.057Z,96762.16
2018-04-25T22:37:44.675Z,96764.80
2018-04-25T22:40:13.275Z,96772.17
2018-04-25T22:42:41.529Z,96773.05
2018-04-25T22:45:10.285Z,96767.98
2018-04-25T22:47:38.804Z,96769.31
2018-04-25T22:50:07.296Z,96762.89
2018-04-25T22:52:35.781Z,96757.83
2018-04-25T22:55:04.223Z,96760.84
2018-04-25T22:57:32.697Z,96756.12
2018-04-25T23:00:02.364Z,96753.97
2018-04-25T23:02:30.924Z,96750.92
2018-04-25T23:04:59.068Z,96759.86
2018-04-25T23:07:27.619Z,96765.88
2018-04-25T23:09:56.075Z,96765.57
2018-04-25T23:12:24.626Z,96758.73
2018-04-25T23:14:53.113Z,96765.59
2018-04-25T23:17:21.606Z,96769.10
2018-04-25T23:19:50.182Z,96764.02
2018-04-25T23:22:18.674Z,96767.46
2018-04-25T23:24:48.156Z,96768.77
2018-04-25T23:27:16.435Z,96783.23
2018-04-25T23:29:45.001Z,96783.69
2018-04-25T23:32:13.524Z,96787.53
2018-04-25T23:34:42.202Z,96795.25
2018-04-25T23:37:10.426Z,96791.07
2018-04-25T23:39:38.608Z,96783.01
2018-04-25T23:42:06.804Z,96786.41
2018-04-25T23:44:35.244Z,96787.70
2018-04-25T23:47:03.869Z,96785.56
2018-04-25T23:49:32.349Z,96777.55
2018-04-25T23:52:00.816Z,96771.19
2018-04-25T23:54:29.352Z,96778.45
2018-04-25T23:56:58.660Z,96786.63
2018-04-25T23:59:27.135Z,96794.34
